sensor_id;sensor_type;location;lat;lon;timestamp;pressure;altitude;pressure_sealevel;temperature
23208;BMP180;11773;52.570;13.052;2023-11-18T00:00:41;101891.00;;;11.60
23208;BMP180;11773;52.570;13.052;2023-11-18T00:03:10;101893.00;;;11.60
23208;BMP180;11773;52.570;13.052;2023-11-18T00:05:40;101894.00;;;11.60
23208;BMP180;11773;52.570;13.052;2023-11-18T00:08:10;101894.00;;;11.60
23208;BMP180;11773;52.570;13.052;2023-11-18T00:10:40;101893.00;;;11.60
23208;BMP180;11773;52.570;13.052;2023-11-18T00:13:09;101886.00;;;11.60
23208;BMP180;11773;52.570;13.052;2023-11-18T00:15:39;101898.00;;;11.60
23208;BMP180;11773;52.570;13.052;2023-11-18T00:18:09;101896.00;;;11.60
23208;BMP180;11773;52.570;13.052;2023-11-18T00:20:39;101907.00;;;11.60
23208;BMP180;11773;52.570;13.052;2023-11-18T00:23:09;101908.00;;;11.60
23208;BMP180;11773;52.570;13.052;2023-11-18T00:25:38;101916.00;;;11.60
23208;BMP180;11773;52.570;13.052;2023-11-18T00:28:09;101916.00;;;11.60
23208;BMP180;11773;52.570;13.052;2023-11-18T00:30:38;101912.00;;;11.60
23208;BMP180;11773;52.570;13.052;2023-11-18T00:33:08;101937.00;;;11.60
23208;BMP180;11773;52.570;13.052;2023-11-18T00:35:38;101933.00;;;11.60
23208;BMP180;11773;52.570;13.052;2023-11-18T00:38:08;101934.00;;;11.60
23208;BMP180;11773;52.570;13.052;2023-11-18T00:40:38;101949.00;;;11.60
23208;BMP180;11773;52.570;13.052;2023-11-18T00:43:08;101940.00;;;11.60
23208;BMP180;11773;52.570;13.052;2023-11-18T00:45:38;101943.00;;;11.60
23208;BMP180;11773;52.570;13.052;2023-11-18T00:48:09;101936.00;;;11.60
23208;BMP180;11773;52.570;13.052;2023-11-18T00:50:38;101946.00;;;11.60
23208;BMP180;11773;52.570;13.052;2023-11-18T00:53:08;101947.00;;;11.60
23208;BMP180;11773;52.570;13.052;2023-11-18T00:55:38;101958.00;;;11.60
23208;BMP180;11773;52.570;13.052;2023-11-18T00:58:10;101969.00;;;11.60
23208;BMP180;11773;52.570;13.052;2023-11-18T01:00:39;101984.00;;;11.60
23208;BMP180;11773;52.570;13.052;2023-11-18T01:03:09;101967.00;;;11.60
23208;BMP180;11773;52.570;13.052;2023-11-18T01:05:39;101981.00;;;11.60
23208;BMP180;11773;52.570;13.052;2023-11-18T01:08:09;101976.00;;;11.60
23208;BMP180;11773;52.570;13.052;2023-11-18T01:10:38;101975.00;;;11.60
23208;BMP180;11773;52.570;13.052;2023-11-18T01:13:08;101987.00;;;11.60
23208;BMP180;11773;52.570;13.052;2023-11-18T01:15:38;101984.00;;;11.60
23208;BMP180;11773;52.570;13.052;2023-11-18T01:18:07;101987.00;;;11.60
23208;BMP180;11773;52.570;13.052;2023-11-18T01:20:37;101985.00;;;11.60
23208;BMP180;11773;52.570;13.052;2023-11-18T01:23:06;102000.00;;;11.60
23208;BMP180;11773;52.570;13.052;2023-11-18T01:25:36;101988.00;;;11.60
23208;BMP180;11773;52.570;13.052;2023-11-18T01:28:06;102006.00;;;11.60
23208;BMP180;11773;52.570;13.052;2023-11-18T01:30:37;101999.00;;;11.60
23208;BMP180;11773;52.570;13.052;2023-11-18T01:33:06;101999.00;;;11.60
23208;BMP180;11773;52.570;13.052;2023-11-18T01:35:36;102005.00;;;11.60
23208;BMP180;11773;52.570;13.052;2023-11-18T01:38:07;102004.00;;;11.60
23208;BMP180;11773;52.570;13.052;2023-11-18T01:40:37;101994.00;;;11.60
23208;BMP180;11773;52.570;13.052;2023-11-18T01:43:11;102007.00;;;11.60
23208;BMP180;11773;52.570;13.052;2023-11-18T01:45:42;101996.00;;;11.60
23208;BMP180;11773;52.570;13.052;2023-11-18T01:48:12;102000.00;;;11.60
23208;BMP180;11773;52.570;13.052;2023-11-18T01:50:43;102003.00;;;11.60
23208;BMP180;11773;52.570;13.052;2023-11-18T01:53:15;102009.00;;;11.60
23208;BMP180;11773;52.570;13.052;2023-11-18T01:55:45;102007.00;;;11.60
23208;BMP180;11773;52.570;13.052;2023-11-18T01:58:15;102010.00;;;11.60
23208;BMP180;11773;52.570;13.052;2023-11-18T02:00:47;102011.00;;;11.60
23208;BMP180;11773;52.570;13.052;2023-11-18T02:03:17;102009.00;;;11.60
23208;BMP180;11773;52.570;13.052;2023-11-18T02:05:47;102014.00;;;11.60
23208;BMP180;11773;52.570;13.052;2023-11-18T02:08:16;102009.00;;;11.60
23208;BMP180;11773;52.570;13.052;2023-11-18T02:11:00;102018.00;;;11.60
23208;BMP180;11773;52.570;13.052;2023-11-18T02:13:31;102011.00;;;11.60
23208;BMP180;11773;52.570;13.052;2023-11-18T02:15:59;102008.00;;;11.60
23208;BMP180;11773;52.570;13.052;2023-11-18T02:18:30;102011.00;;;11.60
23208;BMP180;11773;52.570;13.052;2023-11-18T02:21:02;102014.00;;;11.60
23208;BMP180;11773;52.570;13.052;2023-11-18T02:23:33;102012.00;;;11.50
23208;BMP180;11773;52.570;13.052;2023-11-18T02:26:03;102014.00;;;11.50
23208;BMP180;11773;52.570;13.052;2023-11-18T02:28:34;102017.00;;;11.50
23208;BMP180;11773;52.570;13.052;2023-11-18T02:31:10;102020.00;;;11.50
23208;BMP180;11773;52.570;13.052;2023-11-18T02:33:49;102017.00;;;11.50
23208;BMP180;11773;52.570;13.052;2023-11-18T02:36:32;102009.00;;;11.40
23208;BMP180;11773;52.570;13.052;2023-11-18T02:39:11;102016.00;;;11.40
23208;BMP180;11773;52.570;13.052;2023-11-18T02:41:45;102019.00;;;11.40
23208;BMP180;11773;52.570;13.052;2023-11-18T02:44:18;102029.00;;;11.40
23208;BMP180;11773;52.570;13.052;2023-11-18T02:46:48;102021.00;;;11.40
23208;BMP180;11773;52.570;13.052;2023-11-18T02:49:18;102012.00;;;11.40
23208;BMP180;11773;52.570;13.052;2023-11-18T02:51:48;102013.00;;;11.40
23208;BMP180;11773;52.570;13.052;2023-11-18T02:54:17;102023.00;;;11.40
23208;BMP180;11773;52.570;13.052;2023-11-18T02:56:47;102011.00;;;11.40
23208;BMP180;11773;52.570;13.052;2023-11-18T02:59:17;102019.00;;;11.40
23208;BMP180;11773;52.570;13.052;2023-11-18T03:01:47;102019.00;;;11.40
23208;BMP180;11773;52.570;13.052;2023-11-18T03:04:17;102010.00;;;11.40
23208;BMP180;11773;52.570;13.052;2023-11-18T03:06:47;102013.00;;;11.40
23208;BMP180;11773;52.570;13.052;2023-11-18T03:09:17;102013.00;;;11.40
23208;BMP180;11773;52.570;13.052;2023-11-18T03:11:47;102021.00;;;11.40
23208;BMP180;11773;52.570;13.052;2023-11-18T03:14:18;102016.00;;;11.40
23208;BMP180;11773;52.570;13.052;2023-11-18T03:16:48;102009.00;;;11.40
23208;BMP180;11773;52.570;13.052;2023-11-18T03:19:18;102018.00;;;11.40
23208;BMP180;11773;52.570;13.052;2023-11-18T03:21:54;102016.00;;;11.40
23208;BMP180;11773;52.570;13.052;2023-11-18T03:24:24;102027.00;;;11.40
23208;BMP180;11773;52.570;13.052;2023-11-18T03:26:54;102020.00;;;11.40
23208;BMP180;11773;52.570;13.052;2023-11-18T03:29:24;102028.00;;;11.40
23208;BMP180;11773;52.570;13.052;2023-11-18T03:31:54;102024.00;;;11.40
23208;BMP180;11773;52.570;13.052;2023-11-18T03:34:23;102036.00;;;11.40
23208;BMP180;11773;52.570;13.052;2023-11-18T03:36:53;102034.00;;;11.50
23208;BMP180;11773;52.570;13.052;2023-11-18T03:39:24;102038.00;;;11.50
23208;BMP180;11773;52.570;13.052;2023-11-18T03:41:54;102038.00;;;11.40
23208;BMP180;11773;52.570;13.052;2023-11-18T03:44:25;102046.00;;;11.50
23208;BMP180;11773;52.570;13.052;2023-11-18T03:46:55;102036.00;;;11.40
23208;BMP180;11773;52.570;13.052;2023-11-18T03:49:25;102038.00;;;11.40
23208;BMP180;11773;52.570;13.052;2023-11-18T03:51:54;102044.00;;;11.40
23208;BMP180;11773;52.570;13.052;2023-11-18T03:54:24;102049.00;;;11.40
23208;BMP180;11773;52.570;13.052;2023-11-18T03:56:53;102060.00;;;11.50
23208;BMP180;11773;52.570;13.052;2023-11-18T03:59:24;102050.00;;;11.50
23208;BMP180;11773;52.570;13.052;2023-11-18T04:01:53;102048.00;;;11.40
23208;BMP180;11773;52.570;13.052;2023-11-18T04:04:23;102065.00;;;11.40
23208;BMP180;11773;52.570;13.052;2023-11-18T04:06:53;102052.00;;;11.40
23208;BMP180;11773;52.570;13.052;2023-11-18T04:09:22;102057.00;;;11.40
23208;BMP180;11773;52.570;13.052;2023-11-18T04:11:52;102057.00;;;11.40
23208;BMP180;11773;52.570;13.052;2023-11-18T04:14:22;102062.00;;;11.40
23208;BMP180;11773;52.570;13.052;2023-11-18T04:16:51;102064.00;;;11.40
23208;BMP180;11773;52.570;13.052;2023-11-18T04:19:21;102069.00;;;11.40
23208;BMP180;11773;52.570;13.052;2023-11-18T04:21:51;102068.00;;;11.40
23208;BMP180;11773;52.570;13.052;2023-11-18T04:24:21;102071.00;;;11.40
23208;BMP180;11773;52.570;13.052;2023-11-18T04:26:50;102066.00;;;11.40
23208;BMP180;11773;52.570;13.052;2023-11-18T04:29:20;102076.00;;;11.40
23208;BMP180;11773;52.570;13.052;2023-11-18T04:31:51;102080.00;;;11.40
23208;BMP180;11773;52.570;13.052;2023-11-18T04:34:22;102074.00;;;11.40
23208;BMP180;11773;52.570;13.052;2023-11-18T04:36:53;102090.00;;;11.40
23208;BMP180;11773;52.570;13.052;2023-11-18T04:39:23;102079.00;;;11.40
23208;BMP180;11773;52.570;13.052;2023-11-18T04:41:54;102079.00;;;11.40
23208;BMP180;11773;52.570;13.052;2023-11-18T04:44:25;102087.00;;;11.40
23208;BMP180;11773;52.570;13.052;2023-11-18T04:46:55;102079.00;;;11.40
23208;BMP180;11773;52.570;13.052;2023-11-18T04:49:25;102092.00;;;11.40
23208;BMP180;11773;52.570;13.052;2023-11-18T04:51:54;102080.00;;;11.40
23208;BMP180;11773;52.570;13.052;2023-11-18T04:54:24;102085.00;;;11.40
23208;BMP180;11773;52.570;13.052;2023-11-18T04:56:54;102078.00;;;11.40
23208;BMP180;11773;52.570;13.052;2023-11-18T04:59:23;102077.00;;;11.40
23208;BMP180;11773;52.570;13.052;2023-11-18T05:01:53;102072.00;;;11.40
23208;BMP180;11773;52.570;13.052;2023-11-18T05:04:22;102067.00;;;11.40
23208;BMP180;11773;52.570;13.052;2023-11-18T05:06:52;102077.00;;;11.40
23208;BMP180;11773;52.570;13.052;2023-11-18T05:09:21;102077.00;;;11.40
23208;BMP180;11773;52.570;13.052;2023-11-18T05:14:30;102076.00;;;11.40
23208;BMP180;11773;52.570;13.052;2023-11-18T05:17:01;102067.00;;;11.40
23208;BMP180;11773;52.570;13.052;2023-11-18T05:19:32;102075.00;;;11.40
23208;BMP180;11773;52.570;13.052;2023-11-18T05:22:02;102078.00;;;11.40
23208;BMP180;11773;52.570;13.052;2023-11-18T05:24:31;102089.00;;;11.50
23208;BMP180;11773;52.570;13.052;2023-11-18T05:27:01;102078.00;;;11.40
23208;BMP180;11773;52.570;13.052;2023-11-18T05:29:31;102076.00;;;11.40
23208;BMP180;11773;52.570;13.052;2023-11-18T05:32:01;102072.00;;;11.50
23208;BMP180;11773;52.570;13.052;2023-11-18T05:34:30;102084.00;;;11.50
23208;BMP180;11773;52.570;13.052;2023-11-18T05:37:00;102066.00;;;11.50
23208;BMP180;11773;52.570;13.052;2023-11-18T05:39:30;102073.00;;;11.50
23208;BMP180;11773;52.570;13.052;2023-11-18T05:41:59;102067.00;;;11.50
23208;BMP180;11773;52.570;13.052;2023-11-18T05:44:29;102062.00;;;11.40
23208;BMP180;11773;52.570;13.052;2023-11-18T05:47:03;102077.00;;;11.50
23208;BMP180;11773;52.570;13.052;2023-11-18T05:49:34;102067.00;;;11.50
23208;BMP180;11773;52.570;13.052;2023-11-18T05:52:04;102081.00;;;11.50
23208;BMP180;11773;52.570;13.052;2023-11-18T05:54:35;102077.00;;;11.50
23208;BMP180;11773;52.570;13.052;2023-11-18T05:57:04;102077.00;;;11.50
23208;BMP180;11773;52.570;13.052;2023-11-18T05:59:34;102084.00;;;11.50
23208;BMP180;11773;52.570;13.052;2023-11-18T06:02:04;102085.00;;;11.50
23208;BMP180;11773;52.570;13.052;2023-11-18T06:04:34;102093.00;;;11.50
23208;BMP180;11773;52.570;13.052;2023-11-18T06:07:04;102093.00;;;11.50
23208;BMP180;11773;52.570;13.052;2023-11-18T06:09:34;102084.00;;;11.50
23208;BMP180;11773;52.570;13.052;2023-11-18T06:12:04;102095.00;;;11.50
23208;BMP180;11773;52.570;13.052;2023-11-18T06:14:36;102098.00;;;11.50
23208;BMP180;11773;52.570;13.052;2023-11-18T06:17:06;102089.00;;;11.50
23208;BMP180;11773;52.570;13.052;2023-11-18T06:19:37;102084.00;;;11.50
23208;BMP180;11773;52.570;13.052;2023-11-18T06:22:06;102096.00;;;11.50
23208;BMP180;11773;52.570;13.052;2023-11-18T06:24:36;102096.00;;;11.50
23208;BMP180;11773;52.570;13.052;2023-11-18T06:27:08;102086.00;;;11.50
23208;BMP180;11773;52.570;13.052;2023-11-18T06:29:38;102098.00;;;11.50
23208;BMP180;11773;52.570;13.052;2023-11-18T06:32:08;102092.00;;;11.50
23208;BMP180;11773;52.570;13.052;2023-11-18T06:34:38;102097.00;;;11.50
23208;BMP180;11773;52.570;13.052;2023-11-18T06:37:08;102108.00;;;11.50
23208;BMP180;11773;52.570;13.052;2023-11-18T06:39:42;102110.00;;;11.50
23208;BMP180;11773;52.570;13.052;2023-11-18T06:42:13;102104.00;;;11.50
23208;BMP180;11773;52.570;13.052;2023-11-18T06:44:43;102104.00;;;11.50
23208;BMP180;11773;52.570;13.052;2023-11-18T06:47:13;102112.00;;;11.50
23208;BMP180;11773;52.570;13.052;2023-11-18T06:49:42;102109.00;;;11.50
23208;BMP180;11773;52.570;13.052;2023-11-18T06:52:12;102110.00;;;11.50
23208;BMP180;11773;52.570;13.052;2023-11-18T06:54:42;102111.00;;;11.50
23208;BMP180;11773;52.570;13.052;2023-11-18T06:57:12;102099.00;;;11.50
23208;BMP180;11773;52.570;13.052;2023-11-18T06:59:41;102121.00;;;11.50
23208;BMP180;11773;52.570;13.052;2023-11-18T07:02:11;102116.00;;;11.50
23208;BMP180;11773;52.570;13.052;2023-11-18T07:04:40;102109.00;;;11.50
23208;BMP180;11773;52.570;13.052;2023-11-18T07:07:10;102128.00;;;11.50
23208;BMP180;11773;52.570;13.052;2023-11-18T07:09:41;102119.00;;;11.50
23208;BMP180;11773;52.570;13.052;2023-11-18T07:12:12;102117.00;;;11.50
23208;BMP180;11773;52.570;13.052;2023-11-18T07:14:42;102114.00;;;11.50
23208;BMP180;11773;52.570;13.052;2023-11-18T07:17:11;102118.00;;;11.50
23208;BMP180;11773;52.570;13.052;2023-11-18T07:19:41;102126.00;;;11.50
23208;BMP180;11773;52.570;13.052;2023-11-18T07:22:12;102129.00;;;11.50
23208;BMP180;11773;52.570;13.052;2023-11-18T07:24:43;102120.00;;;11.50
23208;BMP180;11773;52.570;13.052;2023-11-18T07:27:12;102130.00;;;11.50
23208;BMP180;11773;52.570;13.052;2023-11-18T07:29:42;102142.00;;;11.50
23208;BMP180;11773;52.570;13.052;2023-11-18T07:32:13;102144.00;;;11.50
23208;BMP180;11773;52.570;13.052;2023-11-18T07:34:43;102149.00;;;11.50
23208;BMP180;11773;52.570;13.052;2023-11-18T07:37:13;102159.00;;;11.50
23208;BMP180;11773;52.570;13.052;2023-11-18T07:39:43;102159.00;;;11.50
23208;BMP180;11773;52.570;13.052;2023-11-18T07:42:17;102164.00;;;11.50
23208;BMP180;11773;52.570;13.052;2023-11-18T07:44:47;102177.00;;;11.50
23208;BMP180;11773;52.570;13.052;2023-11-18T07:47:16;102171.00;;;11.50
23208;BMP180;11773;52.570;13.052;2023-11-18T07:49:48;102170.00;;;11.50
23208;BMP180;11773;52.570;13.052;2023-11-18T07:52:17;102175.00;;;11.50
23208;BMP180;11773;52.570;13.052;2023-11-18T07:54:47;102178.00;;;11.50
23208;BMP180;11773;52.570;13.052;2023-11-18T07:57:18;102190.00;;;11.50
23208;BMP180;11773;52.570;13.052;2023-11-18T07:59:48;102195.00;;;11.50
23208;BMP180;11773;52.570;13.052;2023-11-18T08:02:17;102193.00;;;11.60
23208;BMP180;11773;52.570;13.052;2023-11-18T08:04:48;102193.00;;;11.60
23208;BMP180;11773;52.570;13.052;2023-11-18T08:07:18;102188.00;;;11.60
23208;BMP180;11773;52.570;13.052;2023-11-18T08:09:47;102194.00;;;11.60
23208;BMP180;11773;52.570;13.052;2023-11-18T08:12:17;102199.00;;;11.60
23208;BMP180;11773;52.570;13.052;2023-11-18T08:14:47;102188.00;;;11.60
23208;BMP180;11773;52.570;13.052;2023-11-18T08:17:16;102201.00;;;11.60
23208;BMP180;11773;52.570;13.052;2023-11-18T08:19:46;102206.00;;;11.60
23208;BMP180;11773;52.570;13.052;2023-11-18T08:22:15;102198.00;;;11.60
23208;BMP180;11773;52.570;13.052;2023-11-18T08:24:48;102184.00;;;11.60
23208;BMP180;11773;52.570;13.052;2023-11-18T08:27:18;102179.00;;;11.60
23208;BMP180;11773;52.570;13.052;2023-11-18T08:29:48;102185.00;;;11.70
23208;BMP180;11773;52.570;13.052;2023-11-18T08:32:18;102181.00;;;11.70
23208;BMP180;11773;52.570;13.052;2023-11-18T08:34:50;102169.00;;;11.70
23208;BMP180;11773;52.570;13.052;2023-11-18T08:37:20;102166.00;;;11.70
23208;BMP180;11773;52.570;13.052;2023-11-18T08:39:49;102180.00;;;11.70
23208;BMP180;11773;52.570;13.052;2023-11-18T08:42:19;102165.00;;;11.70
23208;BMP180;11773;52.570;13.052;2023-11-18T08:44:49;102178.00;;;11.80
23208;BMP180;11773;52.570;13.052;2023-11-18T08:47:18;102180.00;;;11.80
23208;BMP180;11773;52.570;13.052;2023-11-18T08:49:48;102199.00;;;11.80
23208;BMP180;11773;52.570;13.052;2023-11-18T08:52:18;102194.00;;;11.80
23208;BMP180;11773;52.570;13.052;2023-11-18T08:54:47;102189.00;;;11.80
23208;BMP180;11773;52.570;13.052;2023-11-18T08:57:36;102191.00;;;11.70
23208;BMP180;11773;52.570;13.052;2023-11-18T09:00:09;102210.00;;;11.70
23208;BMP180;11773;52.570;13.052;2023-11-18T09:02:40;102195.00;;;11.70
23208;BMP180;11773;52.570;13.052;2023-11-18T09:05:13;102198.00;;;11.70
23208;BMP180;11773;52.570;13.052;2023-11-18T09:07:43;102214.00;;;11.70
23208;BMP180;11773;52.570;13.052;2023-11-18T09:10:14;102205.00;;;11.70
23208;BMP180;11773;52.570;13.052;2023-11-18T09:12:48;102205.00;;;11.70
23208;BMP180;11773;52.570;13.052;2023-11-18T09:15:17;102211.00;;;11.70
23208;BMP180;11773;52.570;13.052;2023-11-18T09:17:49;102198.00;;;11.70
23208;BMP180;11773;52.570;13.052;2023-11-18T09:20:21;102198.00;;;11.80
23208;BMP180;11773;52.570;13.052;2023-11-18T09:22:51;102201.00;;;11.80
23208;BMP180;11773;52.570;13.052;2023-11-18T09:25:22;102209.00;;;11.80
23208;BMP180;11773;52.570;13.052;2023-11-18T09:27:52;102194.00;;;11.80
23208;BMP180;11773;52.570;13.052;2023-11-18T09:30:22;102196.00;;;11.80
23208;BMP180;11773;52.570;13.052;2023-11-18T09:32:52;102191.00;;;11.90
23208;BMP180;11773;52.570;13.052;2023-11-18T09:35:23;102201.00;;;11.90
23208;BMP180;11773;52.570;13.052;2023-11-18T09:37:52;102190.00;;;11.90
23208;BMP180;11773;52.570;13.052;2023-11-18T09:40:25;102209.00;;;11.90
23208;BMP180;11773;52.570;13.052;2023-11-18T09:42:58;102212.00;;;11.90
23208;BMP180;11773;52.570;13.052;2023-11-18T09:45:29;102208.00;;;11.90
23208;BMP180;11773;52.570;13.052;2023-11-18T09:48:02;102202.00;;;11.90
23208;BMP180;11773;52.570;13.052;2023-11-18T09:50:38;102197.00;;;11.90
23208;BMP180;11773;52.570;13.052;2023-11-18T09:53:10;102205.00;;;11.90
23208;BMP180;11773;52.570;13.052;2023-11-18T09:55:50;102214.00;;;12.00
23208;BMP180;11773;52.570;13.052;2023-11-18T09:58:34;102211.00;;;12.00
23208;BMP180;11773;52.570;13.052;2023-11-18T10:01:03;102199.00;;;12.00
23208;BMP180;11773;52.570;13.052;2023-11-18T10:03:33;102210.00;;;12.00
23208;BMP180;11773;52.570;13.052;2023-11-18T10:06:07;102198.00;;;12.00
23208;BMP180;11773;52.570;13.052;2023-11-18T10:08:38;102201.00;;;12.00
23208;BMP180;11773;52.570;13.052;2023-11-18T10:11:07;102218.00;;;12.00
23208;BMP180;11773;52.570;13.052;2023-11-18T10:13:37;102210.00;;;12.00
23208;BMP180;11773;52.570;13.052;2023-11-18T10:16:09;102219.00;;;12.10
23208;BMP180;11773;52.570;13.052;2023-11-18T10:18:40;102195.00;;;12.10
23208;BMP180;11773;52.570;13.052;2023-11-18T10:21:11;102211.00;;;12.10
23208;BMP180;11773;52.570;13.052;2023-11-18T10:24:00;102189.00;;;12.10
23208;BMP180;11773;52.570;13.052;2023-11-18T10:26:34;102194.00;;;12.10
23208;BMP180;11773;52.570;13.052;2023-11-18T10:29:04;102198.00;;;12.10
23208;BMP180;11773;52.570;13.052;2023-11-18T10:31:36;102193.00;;;12.10
23208;BMP180;11773;52.570;13.052;2023-11-18T10:34:08;102188.00;;;12.10
23208;BMP180;11773;52.570;13.052;2023-11-18T10:36:40;102200.00;;;12.10
23208;BMP180;11773;52.570;13.052;2023-11-18T10:39:13;102209.00;;;12.20
23208;BMP180;11773;52.570;13.052;2023-11-18T10:41:44;102211.00;;;12.10
23208;BMP180;11773;52.570;13.052;2023-11-18T10:44:16;102221.00;;;12.10
23208;BMP180;11773;52.570;13.052;2023-11-18T10:46:53;102222.00;;;12.10
23208;BMP180;11773;52.570;13.052;2023-11-18T10:49:23;102218.00;;;12.10
23208;BMP180;11773;52.570;13.052;2023-11-18T10:51:53;102215.00;;;12.10
23208;BMP180;11773;52.570;13.052;2023-11-18T10:54:23;102219.00;;;12.20
23208;BMP180;11773;52.570;13.052;2023-11-18T10:56:54;102202.00;;;12.20
23208;BMP180;11773;52.570;13.052;2023-11-18T10:59:26;102200.00;;;12.20
23208;BMP180;11773;52.570;13.052;2023-11-18T11:01:56;102220.00;;;12.20
23208;BMP180;11773;52.570;13.052;2023-11-18T11:04:26;102224.00;;;12.20
23208;BMP180;11773;52.570;13.052;2023-11-18T11:06:58;102233.00;;;12.20
23208;BMP180;11773;52.570;13.052;2023-11-18T11:09:29;102221.00;;;12.20
23208;BMP180;11773;52.570;13.052;2023-11-18T11:12:04;102208.00;;;12.10
23208;BMP180;11773;52.570;13.052;2023-11-18T11:14:37;102208.00;;;12.10
23208;BMP180;11773;52.570;13.052;2023-11-18T11:17:16;102205.00;;;12.10
23208;BMP180;11773;52.570;13.052;2023-11-18T11:20:08;102213.00;;;12.10
23208;BMP180;11773;52.570;13.052;2023-11-18T11:23:14;102205.00;;;12.10
23208;BMP180;11773;52.570;13.052;2023-11-18T11:26:00;102200.00;;;12.10
23208;BMP180;11773;52.570;13.052;2023-11-18T11:28:34;102197.00;;;12.10
23208;BMP180;11773;52.570;13.052;2023-11-18T11:31:35;102205.00;;;12.10
23208;BMP180;11773;52.570;13.052;2023-11-18T11:34:20;102197.00;;;12.00
23208;BMP180;11773;52.570;13.052;2023-11-18T11:36:52;102191.00;;;12.00
23208;BMP180;11773;52.570;13.052;2023-11-18T11:39:23;102193.00;;;12.00
23208;BMP180;11773;52.570;13.052;2023-11-18T11:41:57;102199.00;;;12.00
23208;BMP180;11773;52.570;13.052;2023-11-18T11:44:28;102188.00;;;12.10
23208;BMP180;11773;52.570;13.052;2023-11-18T11:47:00;102192.00;;;12.10
23208;BMP180;11773;52.570;13.052;2023-11-18T11:49:46;102176.00;;;12.10
23208;BMP180;11773;52.570;13.052;2023-11-18T11:52:31;102174.00;;;12.10
23208;BMP180;11773;52.570;13.052;2023-11-18T11:55:29;102173.00;;;12.10
23208;BMP180;11773;52.570;13.052;2023-11-18T11:57:58;102174.00;;;12.10
23208;BMP180;11773;52.570;13.052;2023-11-18T12:00:28;102178.00;;;12.10
23208;BMP180;11773;52.570;13.052;2023-11-18T12:03:01;102163.00;;;12.20
23208;BMP180;11773;52.570;13.052;2023-11-18T12:05:33;102171.00;;;12.20
23208;BMP180;11773;52.570;13.052;2023-11-18T12:08:07;102161.00;;;12.20
23208;BMP180;11773;52.570;13.052;2023-11-18T12:10:38;102158.00;;;12.20
23208;BMP180;11773;52.570;13.052;2023-11-18T12:13:12;102147.00;;;12.10
23208;BMP180;11773;52.570;13.052;2023-11-18T12:15:55;102156.00;;;12.10
23208;BMP180;11773;52.570;13.052;2023-11-18T12:18:29;102151.00;;;12.10
23208;BMP180;11773;52.570;13.052;2023-11-18T12:21:04;102134.00;;;12.10
23208;BMP180;11773;52.570;13.052;2023-11-18T12:23:33;102135.00;;;12.10
23208;BMP180;11773;52.570;13.052;2023-11-18T12:26:37;102141.00;;;12.10
23208;BMP180;11773;52.570;13.052;2023-11-18T12:28:40;102137.00;;;12.10
23208;BMP180;11773;52.570;13.052;2023-11-18T12:31:11;102127.00;;;12.10
23208;BMP180;11773;52.570;13.052;2023-11-18T12:36:55;102118.00;;;12.00
23208;BMP180;11773;52.570;13.052;2023-11-18T12:39:51;102119.00;;;12.00
23208;BMP180;11773;52.570;13.052;2023-11-18T12:45:39;102144.00;;;12.00
23208;BMP180;11773;52.570;13.052;2023-11-18T12:47:55;102141.00;;;12.00
23208;BMP180;11773;52.570;13.052;2023-11-18T12:50:26;102115.00;;;12.00
23208;BMP180;11773;52.570;13.052;2023-11-18T12:52:58;102107.00;;;12.00
23208;BMP180;11773;52.570;13.052;2023-11-18T12:55:28;102110.00;;;12.00
23208;BMP180;11773;52.570;13.052;2023-11-18T12:58:01;102107.00;;;12.00
23208;BMP180;11773;52.570;13.052;2023-11-18T13:00:32;102106.00;;;12.00
23208;BMP180;11773;52.570;13.052;2023-11-18T13:03:04;102104.00;;;12.00
23208;BMP180;11773;52.570;13.052;2023-11-18T13:05:35;102096.00;;;12.00
23208;BMP180;11773;52.570;13.052;2023-11-18T13:08:05;102100.00;;;12.00
23208;BMP180;11773;52.570;13.052;2023-11-18T13:10:35;102087.00;;;12.00
23208;BMP180;11773;52.570;13.052;2023-11-18T13:13:05;102094.00;;;12.00
23208;BMP180;11773;52.570;13.052;2023-11-18T13:15:36;102085.00;;;12.10
23208;BMP180;11773;52.570;13.052;2023-11-18T13:18:06;102081.00;;;12.10
23208;BMP180;11773;52.570;13.052;2023-11-18T13:20:35;102089.00;;;12.10
23208;BMP180;11773;52.570;13.052;2023-11-18T13:23:10;102091.00;;;12.10
23208;BMP180;11773;52.570;13.052;2023-11-18T13:25:41;102086.00;;;12.10
23208;BMP180;11773;52.570;13.052;2023-11-18T13:28:11;102082.00;;;12.00
23208;BMP180;11773;52.570;13.052;2023-11-18T13:30:42;102084.00;;;12.00
23208;BMP180;11773;52.570;13.052;2023-11-18T13:33:13;102092.00;;;12.00
23208;BMP180;11773;52.570;13.052;2023-11-18T13:35:43;102076.00;;;12.00
23208;BMP180;11773;52.570;13.052;2023-11-18T13:38:16;102075.00;;;12.10
23208;BMP180;11773;52.570;13.052;2023-11-18T13:40:47;102076.00;;;12.10
23208;BMP180;11773;52.570;13.052;2023-11-18T13:43:17;102085.00;;;12.10
23208;BMP180;11773;52.570;13.052;2023-11-18T13:45:53;102074.00;;;12.10
23208;BMP180;11773;52.570;13.052;2023-11-18T13:48:23;102070.00;;;12.10
23208;BMP180;11773;52.570;13.052;2023-11-18T13:50:53;102083.00;;;12.10
23208;BMP180;11773;52.570;13.052;2023-11-18T13:53:22;102074.00;;;12.10
23208;BMP180;11773;52.570;13.052;2023-11-18T13:55:54;102066.00;;;12.10
23208;BMP180;11773;52.570;13.052;2023-11-18T13:58:23;102094.00;;;12.10
23208;BMP180;11773;52.570;13.052;2023-11-18T14:00:53;102082.00;;;12.10
23208;BMP180;11773;52.570;13.052;2023-11-18T14:03:24;102068.00;;;12.10
23208;BMP180;11773;52.570;13.052;2023-11-18T14:05:58;102077.00;;;12.20
23208;BMP180;11773;52.570;13.052;2023-11-18T14:08:29;102061.00;;;12.10
23208;BMP180;11773;52.570;13.052;2023-11-18T14:10:59;102054.00;;;12.20
23208;BMP180;11773;52.570;13.052;2023-11-18T14:13:31;102059.00;;;12.20
23208;BMP180;11773;52.570;13.052;2023-11-18T14:16:03;102062.00;;;12.20